Time;durP1;ratioP1;P1;durP2;ratioP2;P2;SDS_P1;SDS_P2;PMS_P1;PMS_P2;Temp;Humidity;BMP_temperature;BMP_pressure;BME280_temperature;BME280_humidity;BME280_pressure;Samples;Min_cycle;Max_cycle;Signal;HPM_P1;HPM_P2
2021/07/18 00:06:01;;;;;;;;;30.00;26.33;;;;;;;;8749266;40;10258;-64
2021/07/18 00:12:03;;;;;;;;;31.67;25.67;;;;;;;;8750076;40;11526;-65
2021/07/18 00:18:05;;;;;;;;;26.00;26.00;;;;;;;;8749700;40;10852;-65
2021/07/18 00:24:07;;;;;;;;;28.00;25.75;;;;;;;;8749371;40;11095;-64
2021/07/18 00:30:10;;;;;;;;;31.00;29.25;;;;;;;;8749802;40;11018;-64
2021/07/18 00:36:12;;;;;;;;;29.75;27.25;;;;;;;;8749722;40;10979;-64
2021/07/18 00:42:18;;;;;;;;;28.33;27.00;;;;;;;;8750243;40;10660;-65
2021/07/18 00:48:21;;;;;;;;;26.25;26.25;;;;;;;;8739414;40;10937;-65
2021/07/18 00:54:24;;;;;;;;;30.25;26.00;;;;;;;;8748986;40;11179;-65
2021/07/18 01:00:26;;;;;;;;;26.67;26.33;;;;;;;;8748696;40;10651;-66
2021/07/18 01:06:28;;;;;;;;;34.00;29.50;;;;;;;;8748557;40;11198;-64
2021/07/18 01:12:31;;;;;;;;;28.25;27.25;;;;;;;;8750523;40;11634;-65
2021/07/18 01:18:34;;;;;;;;;29.50;27.00;;;;;;;;8749521;40;11011;-63
2021/07/18 01:24:36;;;;;;;;;21.00;21.00;;;;;;;;8731852;40;10595;-64
2021/07/18 01:30:39;;;;;;;;;27.33;27.33;;;;;;;;8747956;40;10804;-65
2021/07/18 01:36:41;;;;;;;;;25.33;25.33;;;;;;;;8748230;40;10764;-65
2021/07/18 01:42:43;;;;;;;;;31.00;29.67;;;;;;;;8738574;40;10998;-65
2021/07/18 01:48:51;;;;;;;;;33.00;30.75;;;;;;;;8747347;40;11119;-66
2021/07/18 01:54:55;;;;;;;;;30.25;27.75;;;;;;;;8748120;40;11220;-64
2021/07/18 02:00:57;;;;;;;;;28.00;28.00;;;;;;;;8747954;40;10284;-63
2021/07/18 02:07:02;;;;;;;;;30.67;28.00;;;;;;;;8748573;40;11627;-65
2021/07/18 02:13:05;;;;;;;;;30.67;28.00;;;;;;;;8748065;40;10485;-65
2021/07/18 02:19:10;;;;;;;;;27.33;24.00;;;;;;;;8738033;40;10875;-64
2021/07/18 02:25:20;;;;;;;;;27.67;26.67;;;;;;;;8747685;40;11037;-65
2021/07/18 02:31:22;;;;;;;;;27.33;27.33;;;;;;;;8739036;40;10604;-64
2021/07/18 02:37:24;;;;;;;;;28.00;28.00;;;;;;;;8738555;40;10427;-65
2021/07/18 02:43:26;;;;;;;;;34.33;30.33;;;;;;;;8747019;40;10589;-64
2021/07/18 02:49:28;;;;;;;;;33.67;30.67;;;;;;;;8737891;40;10174;-65
2021/07/18 02:55:30;;;;;;;;;32.33;32.33;;;;;;;;8746620;40;10197;-63
2021/07/18 03:01:32;;;;;;;;;30.33;30.33;;;;;;;;8746279;40;10204;-64
2021/07/18 03:07:34;;;;;;;;;27.33;27.33;;;;;;;;8747889;40;10706;-65
2021/07/18 03:13:36;;;;;;;;;31.00;29.67;;;;;;;;8748973;40;10856;-65
2021/07/18 03:19:38;;;;;;;;;32.00;31.00;;;;;;;;8750913;40;10305;-64
2021/07/18 03:25:40;;;;;;;;;31.00;30.00;;;;;;;;8750696;40;10750;-65
2021/07/18 03:31:42;;;;;;;;;30.33;28.33;;;;;;;;8740551;40;10746;-64
2021/07/18 03:37:44;;;;;;;;;38.67;31.67;;;;;;;;8749441;40;11593;-64
2021/07/18 03:43:47;;;;;;;;;30.33;28.00;;;;;;;;8749236;40;10787;-64
2021/07/18 03:49:49;;;;;;;;;21.00;21.00;;;;;;;;8749700;40;10637;-64
2021/07/18 03:55:52;;;;;;;;;34.50;33.75;;;;;;;;8749468;40;11125;-64
2021/07/18 04:01:54;;;;;;;;;28.67;28.67;;;;;;;;8748899;40;10352;-64
2021/07/18 04:07:56;;;;;;;;;33.25;29.25;;;;;;;;8749349;40;11451;-64
2021/07/18 04:13:58;;;;;;;;;29.33;26.67;;;;;;;;8749728;40;10486;-65
2021/07/18 04:20:01;;;;;;;;;32.25;32.25;;;;;;;;8749066;40;11099;-64
2021/07/18 04:26:03;;;;;;;;;32.25;29.50;;;;;;;;8749816;40;11095;-65
2021/07/18 04:32:05;;;;;;;;;31.67;31.67;;;;;;;;8748473;40;10229;-65
2021/07/18 04:38:08;;;;;;;;;35.33;34.00;;;;;;;;8748348;40;10785;-64
2021/07/18 04:44:10;;;;;;;;;31.00;30.67;;;;;;;;8739140;40;10431;-63
2021/07/18 04:50:13;;;;;;;;;22.67;22.67;;;;;;;;8739877;40;10598;-64
2021/07/18 04:56:15;;;;;;;;;30.50;29.25;;;;;;;;8739311;40;11144;-65
2021/07/18 05:02:17;;;;;;;;;32.00;31.33;;;;;;;;8748755;40;10595;-63
2021/07/18 05:08:20;;;;;;;;;36.50;32.00;;;;;;;;8748400;40;11509;-64
2021/07/18 05:14:22;;;;;;;;;31.75;30.50;;;;;;;;8749172;40;11042;-64
2021/07/18 05:20:26;;;;;;;;;30.67;28.33;;;;;;;;8748375;40;10405;-64
2021/07/18 05:26:28;;;;;;;;;34.50;33.25;;;;;;;;8747756;40;10936;-64
2021/07/18 05:32:29;;;;;;;;;35.50;31.25;;;;;;;;8747882;40;11571;-64
2021/07/18 05:38:32;;;;;;;;;29.25;29.25;;;;;;;;8737872;40;11136;-65
2021/07/18 05:44:34;;;;;;;;;37.25;34.25;;;;;;;;8738024;40;10918;-64
2021/07/18 05:50:36;;;;;;;;;37.00;34.00;;;;;;;;8747247;40;10864;-64
2021/07/18 05:56:38;;;;;;;;;30.25;29.50;;;;;;;;8747635;40;10811;-65
2021/07/18 06:02:41;;;;;;;;;31.25;30.50;;;;;;;;8747295;40;10762;-65
2021/07/18 06:08:43;;;;;;;;;32.50;29.25;;;;;;;;8735330;40;10910;-65
2021/07/18 06:14:45;;;;;;;;;28.00;25.50;;;;;;;;8746895;40;10653;-64
2021/07/18 06:20:47;;;;;;;;;31.25;29.75;;;;;;;;8746851;40;10667;-63
2021/07/18 06:26:49;;;;;;;;;34.50;33.00;;;;;;;;8748072;40;10675;-65
2021/07/18 06:32:51;;;;;;;;;34.25;34.25;;;;;;;;8730176;40;10789;-65
2021/07/18 06:38:55;;;;;;;;;31.00;28.25;;;;;;;;8746559;40;10667;-64
2021/07/18 06:44:59;;;;;;;;;30.00;28.75;;;;;;;;8746109;40;10668;-64
2021/07/18 06:51:00;;;;;;;;;31.75;26.75;;;;;;;;8749513;40;11080;-64
2021/07/18 06:57:03;;;;;;;;;29.00;26.25;;;;;;;;8749999;40;10610;-64
2021/07/18 07:03:06;;;;;;;;;28.00;26.75;;;;;;;;8749954;40;10665;-66
2021/07/18 07:09:08;;;;;;;;;27.75;23.50;;;;;;;;8750952;40;11216;-65
2021/07/18 07:15:11;;;;;;;;;23.50;22.75;;;;;;;;8749495;40;10821;-64
2021/07/18 07:21:14;;;;;;;;;25.50;22.75;;;;;;;;8750465;40;11329;-65
2021/07/18 07:27:16;;;;;;;;;15.50;15.00;;;;;;;;8749962;40;10543;-65
2021/07/18 07:33:18;;;;;;;;;30.00;28.50;;;;;;;;8749533;40;10657;-65
2021/07/18 07:39:19;;;;;;;;;29.75;26.50;;;;;;;;8749615;40;10647;-65
2021/07/18 07:45:21;;;;;;;;;30.00;30.00;;;;;;;;8749307;40;10629;-65
2021/07/18 07:51:23;;;;;;;;;25.25;23.25;;;;;;;;8749915;40;10735;-65
2021/07/18 07:57:25;;;;;;;;;21.75;21.75;;;;;;;;8749610;40;10699;-65
2021/07/18 08:03:27;;;;;;;;;28.00;27.25;;;;;;;;8743895;40;10703;-65
2021/07/18 08:09:29;;;;;;;;;28.50;27.75;;;;;;;;8748440;40;10657;-65
2021/07/18 08:15:32;;;;;;;;;25.75;25.75;;;;;;;;8748897;40;10695;-64
2021/07/18 08:21:34;;;;;;;;;28.00;24.75;;;;;;;;8749702;40;10970;-66
2021/07/18 08:27:42;;;;;;;;;30.50;28.50;;;;;;;;8749150;40;10694;-66
2021/07/18 08:33:45;;;;;;;;;29.50;29.50;;;;;;;;8748482;40;10758;-65
2021/07/18 08:39:47;;;;;;;;;36.25;32.00;;;;;;;;8749774;40;11222;-66
2021/07/18 08:45:49;;;;;;;;;43.25;40.00;;;;;;;;8748253;40;11454;-65
2021/07/18 08:51:53;;;;;;;;;43.75;38.50;;;;;;;;8749557;40;10999;-64
2021/07/18 08:57:56;;;;;;;;;39.25;37.00;;;;;;;;8747691;40;10679;-63
2021/07/18 09:04:00;;;;;;;;;37.75;35.75;;;;;;;;8748035;40;11233;-65
2021/07/18 09:10:06;;;;;;;;;27.75;25.50;;;;;;;;8747122;40;10671;-65
2021/07/18 09:16:10;;;;;;;;;31.00;28.25;;;;;;;;8747180;40;10972;-63
2021/07/18 09:22:18;;;;;;;;;29.00;27.75;;;;;;;;8747994;40;10664;-65
2021/07/18 09:28:22;;;;;;;;;26.50;26.00;;;;;;;;8748046;40;10777;-65
2021/07/18 09:34:24;;;;;;;;;28.75;27.75;;;;;;;;8747335;40;10613;-65
2021/07/18 09:40:27;;;;;;;;;28.75;25.25;;;;;;;;8747249;40;10583;-65
2021/07/18 09:46:32;;;;;;;;;28.00;28.00;;;;;;;;8748002;40;11260;-65
2021/07/18 09:52:35;;;;;;;;;29.00;27.00;;;;;;;;8747960;40;10687;-65
2021/07/18 09:58:57;;;;;;;;;30.50;30.00;;;;;;;;8738565;40;10610;-66
2021/07/18 10:04:59;;;;;;;;;29.75;27.50;;;;;;;;8747688;40;10820;-64
2021/07/18 10:11:02;;;;;;;;;30.00;26.75;;;;;;;;8747055;40;10729;-65
2021/07/18 10:17:04;;;;;;;;;25.25;23.50;;;;;;;;8746425;40;10630;-65
2021/07/18 10:23:07;;;;;;;;;18.50;18.50;;;;;;;;8737661;40;10874;-65
2021/07/18 10:29:10;;;;;;;;;23.00;23.00;;;;;;;;8747276;40;10693;-65
2021/07/18 10:35:12;;;;;;;;;16.25;16.25;;;;;;;;8746469;40;10754;-64
2021/07/18 10:41:15;;;;;;;;;24.25;23.25;;;;;;;;8746596;40;10634;-64
2021/07/18 10:47:17;;;;;;;;;25.00;25.00;;;;;;;;8747092;40;10633;-64
2021/07/18 10:53:25;;;;;;;;;22.25;22.00;;;;;;;;8746851;40;10630;-65
2021/07/18 10:59:42;;;;;;;;;24.75;22.75;;;;;;;;8746427;40;10678;-65
2021/07/18 11:05:48;;;;;;;;;21.50;18.50;;;;;;;;8747031;40;10721;-64
2021/07/18 11:11:51;;;;;;;;;19.50;19.00;;;;;;;;8737514;40;10544;-64
2021/07/18 11:18:14;;;;;;;;;21.00;21.00;;;;;;;;8745885;40;10691;-64
2021/07/18 11:24:48;;;;;;;;;21.25;20.75;;;;;;;;8745867;40;10720;-65
2021/07/18 11:30:50;;;;;;;;;24.50;23.00;;;;;;;;8745919;40;11165;-66
2021/07/18 11:36:54;;;;;;;;;20.25;18.25;;;;;;;;8748985;40;10659;-65
2021/07/18 11:43:01;;;;;;;;;19.50;19.50;;;;;;;;8748483;40;10559;-67
2021/07/18 11:49:05;;;;;;;;;18.75;17.50;;;;;;;;8748753;40;10643;-65
2021/07/18 11:55:09;;;;;;;;;19.00;17.25;;;;;;;;8748553;40;11189;-67
2021/07/18 12:01:11;;;;;;;;;16.50;15.75;;;;;;;;8750573;40;10658;-65
2021/07/18 12:07:17;;;;;;;;;18.00;15.75;;;;;;;;8749337;40;10610;-66
2021/07/18 12:13:32;;;;;;;;;14.75;13.25;;;;;;;;8748559;40;10603;-65
2021/07/18 12:19:36;;;;;;;;;18.25;16.00;;;;;;;;8749187;40;10661;-65
2021/07/18 12:25:38;;;;;;;;;12.00;12.00;;;;;;;;8748290;40;10588;-65
2021/07/18 12:31:42;;;;;;;;;15.00;14.00;;;;;;;;8748396;40;10597;-65
2021/07/18 12:37:46;;;;;;;;;18.00;16.00;;;;;;;;8748899;40;10640;-64
2021/07/18 12:43:48;;;;;;;;;16.50;16.50;;;;;;;;8738622;40;10630;-65
2021/07/18 12:50:08;;;;;;;;;16.00;15.00;;;;;;;;8748256;40;10791;-66
2021/07/18 12:56:10;;;;;;;;;17.50;16.00;;;;;;;;8747593;40;11293;-66
2021/07/18 13:02:16;;;;;;;;;19.00;17.75;;;;;;;;8748151;40;10621;-65
2021/07/18 13:08:38;;;;;;;;;15.75;15.75;;;;;;;;8747855;40;10622;-64
2021/07/18 13:14:40;;;;;;;;;17.25;13.00;;;;;;;;8749332;40;10570;-65
2021/07/18 13:20:43;;;;;;;;;18.25;18.25;;;;;;;;8748768;40;10633;-64
2021/07/18 13:26:45;;;;;;;;;16.25;15.50;;;;;;;;8739499;40;10675;-66
2021/07/18 13:32:47;;;;;;;;;16.50;16.50;;;;;;;;8747414;40;10577;-66
2021/07/18 13:38:49;;;;;;;;;18.50;17.00;;;;;;;;8748181;40;10590;-64
2021/07/18 13:44:51;;;;;;;;;17.00;15.50;;;;;;;;8747366;40;10592;-65
2021/07/18 13:50:57;;;;;;;;;13.25;13.25;;;;;;;;8747206;40;10680;-66
2021/07/18 13:56:59;;;;;;;;;17.25;17.00;;;;;;;;8746285;40;10673;-65
2021/07/18 14:03:01;;;;;;;;;13.00;13.00;;;;;;;;8746563;40;10742;-66
2021/07/18 14:09:05;;;;;;;;;16.25;15.25;;;;;;;;8737487;40;11256;-64
2021/07/18 14:15:11;;;;;;;;;23.00;20.25;;;;;;;;8746574;40;10649;-65
2021/07/18 14:21:13;;;;;;;;;18.00;18.00;;;;;;;;8746707;40;10686;-65
2021/07/18 14:27:15;;;;;;;;;16.50;16.50;;;;;;;;8746101;40;11374;-65
2021/07/18 14:33:17;;;;;;;;;18.00;18.00;;;;;;;;8745921;40;10652;-66
2021/07/18 14:39:19;;;;;;;;;20.25;17.25;;;;;;;;8745465;40;10662;-64
2021/07/18 14:45:21;;;;;;;;;20.75;18.50;;;;;;;;8746422;40;10701;-65
2021/07/18 14:51:25;;;;;;;;;23.00;20.50;;;;;;;;8746606;40;10642;-65
2021/07/18 14:57:27;;;;;;;;;20.50;19.25;;;;;;;;8746494;40;10678;-64
2021/07/18 15:03:29;;;;;;;;;19.25;16.25;;;;;;;;8745396;40;10678;-66
2021/07/18 15:09:31;;;;;;;;;15.50;15.50;;;;;;;;8738702;40;10842;-64
2021/07/18 15:15:33;;;;;;;;;21.50;21.25;;;;;;;;8750110;40;11271;-65
2021/07/18 15:21:37;;;;;;;;;18.25;17.00;;;;;;;;8749257;40;10622;-65
2021/07/18 15:27:39;;;;;;;;;15.00;15.00;;;;;;;;8748569;40;10576;-65
2021/07/18 15:33:42;;;;;;;;;21.00;18.75;;;;;;;;8748794;40;10645;-65
2021/07/18 15:39:44;;;;;;;;;18.50;18.50;;;;;;;;8748538;40;10602;-64
2021/07/18 15:45:47;;;;;;;;;21.00;20.25;;;;;;;;8749179;40;10555;-65
2021/07/18 15:51:49;;;;;;;;;19.75;17.50;;;;;;;;8750115;40;10697;-66
2021/07/18 15:57:51;;;;;;;;;17.25;16.00;;;;;;;;8748139;40;10631;-65
2021/07/18 16:03:53;;;;;;;;;21.75;21.00;;;;;;;;8747873;40;11263;-66
2021/07/18 16:09:55;;;;;;;;;16.00;16.00;;;;;;;;8738644;40;10694;-66
2021/07/18 16:15:57;;;;;;;;;19.50;19.50;;;;;;;;8739623;40;10676;-65
2021/07/18 16:21:59;;;;;;;;;18.00;17.75;;;;;;;;8748706;40;10716;-66
2021/07/18 16:28:02;;;;;;;;;24.50;21.25;;;;;;;;8748741;40;10676;-65
2021/07/18 16:34:04;;;;;;;;;19.25;18.00;;;;;;;;8747866;40;10658;-66
2021/07/18 16:40:06;;;;;;;;;24.25;22.25;;;;;;;;8749015;40;11281;-65
2021/07/18 16:46:10;;;;;;;;;28.00;26.75;;;;;;;;8748517;40;10734;-65
2021/07/18 16:52:12;;;;;;;;;17.50;17.50;;;;;;;;8738807;40;10771;-65
2021/07/18 16:58:14;;;;;;;;;25.00;21.00;;;;;;;;8747283;40;11200;-64
2021/07/18 17:04:16;;;;;;;;;20.00;16.75;;;;;;;;8747743;40;11513;-66
2021/07/18 17:10:21;;;;;;;;;16.75;15.50;;;;;;;;8747108;40;10793;-66
2021/07/18 17:16:23;;;;;;;;;15.00;12.00;;;;;;;;8747408;40;10596;-65
2021/07/18 17:22:25;;;;;;;;;15.50;14.75;;;;;;;;8748273;40;10825;-65
2021/07/18 17:28:29;;;;;;;;;21.25;20.50;;;;;;;;8738199;40;10676;-66
2021/07/18 17:34:32;;;;;;;;;23.50;22.00;;;;;;;;8745109;40;10888;-66
2021/07/18 17:40:35;;;;;;;;;21.50;20.00;;;;;;;;8738560;40;10660;-66
2021/07/18 17:46:38;;;;;;;;;15.50;15.50;;;;;;;;8746763;40;10568;-66
2021/07/18 17:52:41;;;;;;;;;19.25;18.25;;;;;;;;8746737;40;10645;-64
2021/07/18 17:58:43;;;;;;;;;18.00;18.00;;;;;;;;8737477;40;11282;-67
2021/07/18 18:04:45;;;;;;;;;14.00;14.00;;;;;;;;8746441;40;10601;-65
2021/07/18 18:10:46;;;;;;;;;23.00;23.00;;;;;;;;8746298;40;10620;-65
2021/07/18 18:16:49;;;;;;;;;25.25;25.25;;;;;;;;8737714;40;10844;-65
2021/07/18 18:22:51;;;;;;;;;22.75;22.00;;;;;;;;8747808;40;10690;-66
2021/07/18 18:28:52;;;;;;;;;19.50;17.50;;;;;;;;8746472;40;10732;-65
2021/07/18 18:34:55;;;;;;;;;22.00;19.25;;;;;;;;8746630;40;10645;-65
2021/07/18 18:40:57;;;;;;;;;25.50;25.50;;;;;;;;8745768;40;11512;-67
2021/07/18 18:47:02;;;;;;;;;22.00;22.00;;;;;;;;8745613;40;10702;-66
2021/07/18 18:53:06;;;;;;;;;21.25;20.25;;;;;;;;8746172;40;10697;-65
2021/07/18 18:59:10;;;;;;;;;29.75;26.75;;;;;;;;8745512;40;10550;-65
2021/07/18 19:05:13;;;;;;;;;22.75;22.75;;;;;;;;8745573;40;10684;-66
2021/07/18 19:11:16;;;;;;;;;28.25;23.25;;;;;;;;8735849;40;10845;-64
2021/07/18 19:17:18;;;;;;;;;31.00;29.00;;;;;;;;8746301;40;10666;-64
2021/07/18 19:23:20;;;;;;;;;24.75;24.25;;;;;;;;8745105;40;11512;-66
2021/07/18 19:29:22;;;;;;;;;30.50;27.25;;;;;;;;8735741;40;10752;-67
2021/07/18 19:35:26;;;;;;;;;32.25;30.00;;;;;;;;8744805;40;10662;-65
2021/07/18 19:41:29;;;;;;;;;28.75;26.00;;;;;;;;8744599;40;10664;-66
2021/07/18 19:47:31;;;;;;;;;30.25;26.00;;;;;;;;8735071;40;11044;-65
2021/07/18 19:53:33;;;;;;;;;28.75;24.50;;;;;;;;8736407;40;10838;-65
2021/07/18 19:59:35;;;;;;;;;31.75;26.75;;;;;;;;8749228;40;10731;-65
2021/07/18 20:05:37;;;;;;;;;31.00;29.75;;;;;;;;8749429;40;10646;-65
2021/07/18 20:11:40;;;;;;;;;28.25;26.00;;;;;;;;8747887;40;10687;-67
2021/07/18 20:17:42;;;;;;;;;31.00;29.25;;;;;;;;8749260;40;10646;-65
2021/07/18 20:23:44;;;;;;;;;34.00;30.50;;;;;;;;8733588;40;11425;-64
2021/07/18 20:29:46;;;;;;;;;33.25;30.50;;;;;;;;8748925;40;10650;-64
2021/07/18 20:35:48;;;;;;;;;29.50;28.25;;;;;;;;8747681;40;10675;-65
2021/07/18 20:41:50;;;;;;;;;31.75;29.00;;;;;;;;8738845;40;10731;-67
2021/07/18 20:47:52;;;;;;;;;27.25;26.25;;;;;;;;8747779;40;10648;-65
2021/07/18 20:53:54;;;;;;;;;29.50;29.50;;;;;;;;8748752;40;11229;-66
2021/07/18 20:59:56;;;;;;;;;28.00;26.75;;;;;;;;8748236;40;10762;-65
2021/07/18 21:05:58;;;;;;;;;34.00;31.00;;;;;;;;8746620;40;10690;-65
2021/07/18 21:12:02;;;;;;;;;30.25;29.25;;;;;;;;8747277;40;11119;-66
2021/07/18 21:18:04;;;;;;;;;36.75;35.50;;;;;;;;8738852;40;10910;-65
2021/07/18 21:24:06;;;;;;;;;34.25;31.75;;;;;;;;8748517;40;11279;-65
2021/07/18 21:30:08;;;;;;;;;35.25;33.50;;;;;;;;8747371;40;10939;-65
2021/07/18 21:36:10;;;;;;;;;45.75;36.50;;;;;;;;8748032;40;10784;-65
2021/07/18 21:42:12;;;;;;;;;38.75;34.50;;;;;;;;8738108;40;10990;-65
2021/07/18 21:48:17;;;;;;;;;39.00;35.00;;;;;;;;8746291;40;11602;-66
2021/07/18 21:54:19;;;;;;;;;32.25;31.00;;;;;;;;8737519;40;11226;-64
2021/07/18 22:00:25;;;;;;;;;33.25;31.25;;;;;;;;8747336;40;11497;-66
2021/07/18 22:06:28;;;;;;;;;33.50;29.75;;;;;;;;8747315;40;11523;-65
2021/07/18 22:12:31;;;;;;;;;30.00;28.25;;;;;;;;8747509;40;10768;-64
2021/07/18 22:18:33;;;;;;;;;30.75;27.75;;;;;;;;8746766;40;10751;-64
2021/07/18 22:24:35;;;;;;;;;32.00;30.75;;;;;;;;8745989;40;11149;-64
2021/07/18 22:30:39;;;;;;;;;30.00;27.25;;;;;;;;8747750;40;10698;-64
2021/07/18 22:36:41;;;;;;;;;33.00;32.25;;;;;;;;8737238;40;10857;-65
2021/07/18 22:42:48;;;;;;;;;31.25;30.75;;;;;;;;8745907;40;10857;-65
2021/07/18 22:48:50;;;;;;;;;27.25;27.25;;;;;;;;8746921;40;10826;-65
2021/07/18 22:54:52;;;;;;;;;32.50;30.25;;;;;;;;8745665;40;10984;-64
2021/07/18 23:00:55;;;;;;;;;34.00;33.00;;;;;;;;8745349;40;10778;-64
2021/07/18 23:06:57;;;;;;;;;44.00;38.25;;;;;;;;8736985;40;11204;-66
2021/07/18 23:13:01;;;;;;;;;46.00;38.50;;;;;;;;8745168;40;11071;-65
2021/07/18 23:19:03;;;;;;;;;33.25;31.00;;;;;;;;8745227;40;11174;-65
2021/07/18 23:25:06;;;;;;;;;37.00;34.50;;;;;;;;8745124;40;11720;-64
2021/07/18 23:31:08;;;;;;;;;34.25;32.75;;;;;;;;8748090;40;11082;-65
2021/07/18 23:37:10;;;;;;;;;35.67;32.67;;;;;;;;8749647;40;10706;-65
2021/07/18 23:43:12;;;;;;;;;33.33;31.33;;;;;;;;8748455;40;10726;-65
2021/07/18 23:49:14;;;;;;;;;33.50;31.00;;;;;;;;8749136;40;11271;-64
2021/07/18 23:55:16;;;;;;;;;31.75;27.25;;;;;;;;8749630;40;11042;-65
